sensor_id;sensor_type;location;lat;lon;timestamp;pressure;altitude;pressure_sealevel;temperature;humidity
12973;BME280;6551;51.056;9.466;2022-12-18T00:01:26;98881.34;;;-9.71;69.35
12973;BME280;6551;51.056;9.466;2022-12-18T00:03:53;98880.25;;;-9.65;69.52
12973;BME280;6551;51.056;9.466;2022-12-18T00:06:20;98877.09;;;-9.72;69.70
12973;BME280;6551;51.056;9.466;2022-12-18T00:08:46;98880.56;;;-9.73;70.10
12973;BME280;6551;51.056;9.466;2022-12-18T00:11:16;98883.88;;;-9.69;69.88
12973;BME280;6551;51.056;9.466;2022-12-18T00:13:43;98884.00;;;-9.72;69.29
12973;BME280;6551;51.056;9.466;2022-12-18T00:16:13;98880.50;;;-9.71;69.15
12973;BME280;6551;51.056;9.466;2022-12-18T00:18:40;98887.59;;;-9.76;68.67
12973;BME280;6551;51.056;9.466;2022-12-18T00:21:10;98879.41;;;-9.86;69.02
12973;BME280;6551;51.056;9.466;2022-12-18T00:23:37;98874.28;;;-10.07;68.78
12973;BME280;6551;51.056;9.466;2022-12-18T00:26:06;98878.63;;;-10.08;69.04
12973;BME280;6551;51.056;9.466;2022-12-18T00:28:32;98882.72;;;-10.04;69.69
12973;BME280;6551;51.056;9.466;2022-12-18T00:31:03;98883.09;;;-9.91;69.88
12973;BME280;6551;51.056;9.466;2022-12-18T00:33:30;98888.09;;;-9.88;70.39
12973;BME280;6551;51.056;9.466;2022-12-18T00:36:03;98892.81;;;-9.78;70.55
12973;BME280;6551;51.056;9.466;2022-12-18T00:38:29;98890.03;;;-9.73;70.71
12973;BME280;6551;51.056;9.466;2022-12-18T00:40:56;98897.16;;;-9.58;70.70
12973;BME280;6551;51.056;9.466;2022-12-18T00:43:22;98887.38;;;-9.52;70.73
12973;BME280;6551;51.056;9.466;2022-12-18T00:45:48;98890.94;;;-9.54;69.25
12973;BME280;6551;51.056;9.466;2022-12-18T00:48:14;98892.56;;;-9.72;68.37
12973;BME280;6551;51.056;9.466;2022-12-18T00:50:40;98885.13;;;-9.99;68.18
12973;BME280;6551;51.056;9.466;2022-12-18T00:53:07;98879.06;;;-10.19;68.04
12973;BME280;6551;51.056;9.466;2022-12-18T00:55:33;98891.03;;;-10.39;68.02
12973;BME280;6551;51.056;9.466;2022-12-18T00:57:59;98883.13;;;-10.35;68.82
12973;BME280;6551;51.056;9.466;2022-12-18T01:00:24;98894.38;;;-10.37;68.07
12973;BME280;6551;51.056;9.466;2022-12-18T01:02:50;98899.06;;;-10.47;68.69
12973;BME280;6551;51.056;9.466;2022-12-18T01:05:16;98901.34;;;-10.39;69.37
12973;BME280;6551;51.056;9.466;2022-12-18T01:07:43;98901.22;;;-10.36;69.65
12973;BME280;6551;51.056;9.466;2022-12-18T01:10:11;98899.22;;;-10.30;69.81
12973;BME280;6551;51.056;9.466;2022-12-18T01:12:37;98898.66;;;-10.36;70.41
12973;BME280;6551;51.056;9.466;2022-12-18T01:15:04;98900.03;;;-10.28;70.76
12973;BME280;6551;51.056;9.466;2022-12-18T01:17:30;98896.31;;;-10.21;70.48
12973;BME280;6551;51.056;9.466;2022-12-18T01:19:56;98902.59;;;-10.07;71.23
12973;BME280;6551;51.056;9.466;2022-12-18T01:22:22;98915.00;;;-9.95;72.03
12973;BME280;6551;51.056;9.466;2022-12-18T01:24:48;98914.69;;;-9.88;71.65
12973;BME280;6551;51.056;9.466;2022-12-18T01:27:14;98914.38;;;-9.80;71.53
12973;BME280;6551;51.056;9.466;2022-12-18T01:29:40;98917.59;;;-9.75;70.90
12973;BME280;6551;51.056;9.466;2022-12-18T01:32:07;98915.19;;;-9.80;69.87
12973;BME280;6551;51.056;9.466;2022-12-18T01:34:33;98909.22;;;-9.80;70.07
12973;BME280;6551;51.056;9.466;2022-12-18T01:37:05;98920.09;;;-9.74;69.01
12973;BME280;6551;51.056;9.466;2022-12-18T01:39:32;98921.66;;;-9.70;69.64
12973;BME280;6551;51.056;9.466;2022-12-18T01:42:03;98926.28;;;-9.58;69.68
12973;BME280;6551;51.056;9.466;2022-12-18T01:50:23;98918.72;;;-9.61;68.75
12973;BME280;6551;51.056;9.466;2022-12-18T01:55:53;98913.28;;;-9.55;68.99
12973;BME280;6551;51.056;9.466;2022-12-18T01:59:13;98914.97;;;-9.54;68.64
12973;BME280;6551;51.056;9.466;2022-12-18T02:01:13;98916.47;;;-9.48;68.79
12973;BME280;6551;51.056;9.466;2022-12-18T02:03:44;98911.22;;;-9.46;67.92
12973;BME280;6551;51.056;9.466;2022-12-18T02:12:12;98912.88;;;-9.44;67.39
12973;BME280;6551;51.056;9.466;2022-12-18T02:17:21;98896.47;;;-9.43;67.10
12973;BME280;6551;51.056;9.466;2022-12-18T02:20:23;98885.88;;;-9.56;66.35
12973;BME280;6551;51.056;9.466;2022-12-18T02:28:57;98899.63;;;-9.57;66.50
12973;BME280;6551;51.056;9.466;2022-12-18T02:31:29;98901.31;;;-9.56;66.97
12973;BME280;6551;51.056;9.466;2022-12-18T02:34:01;98904.75;;;-9.55;66.52
12973;BME280;6551;51.056;9.466;2022-12-18T02:36:28;98896.41;;;-9.62;66.46
12973;BME280;6551;51.056;9.466;2022-12-18T02:38:56;98896.59;;;-9.86;65.60
12973;BME280;6551;51.056;9.466;2022-12-18T02:41:25;98902.88;;;-9.93;65.82
12973;BME280;6551;51.056;9.466;2022-12-18T02:44:00;98903.50;;;-10.08;64.95
12973;BME280;6551;51.056;9.466;2022-12-18T02:49:12;98905.16;;;-10.07;66.51
12973;BME280;6551;51.056;9.466;2022-12-18T02:52:01;98909.31;;;-10.03;67.54
12973;BME280;6551;51.056;9.466;2022-12-18T03:03:03;98909.44;;;-9.65;68.98
12973;BME280;6551;51.056;9.466;2022-12-18T03:05:50;98912.91;;;-9.86;67.10
12973;BME280;6551;51.056;9.466;2022-12-18T03:08:29;98904.09;;;-10.02;66.89
12973;BME280;6551;51.056;9.466;2022-12-18T03:11:12;98905.78;;;-10.01;66.85
12973;BME280;6551;51.056;9.466;2022-12-18T03:13:54;98898.91;;;-10.00;66.95
12973;BME280;6551;51.056;9.466;2022-12-18T03:16:25;98890.31;;;-10.01;66.91
12973;BME280;6551;51.056;9.466;2022-12-18T03:19:11;98889.19;;;-9.94;67.79
12973;BME280;6551;51.056;9.466;2022-12-18T03:21:49;98893.69;;;-9.79;68.70
12973;BME280;6551;51.056;9.466;2022-12-18T03:24:18;98889.91;;;-9.70;69.44
12973;BME280;6551;51.056;9.466;2022-12-18T03:26:50;98890.63;;;-9.67;69.46
12973;BME280;6551;51.056;9.466;2022-12-18T03:29:28;98889.53;;;-9.61;69.08
12973;BME280;6551;51.056;9.466;2022-12-18T03:32:05;98893.09;;;-9.64;68.48
12973;BME280;6551;51.056;9.466;2022-12-18T03:34:34;98900.97;;;-9.68;68.60
12973;BME280;6551;51.056;9.466;2022-12-18T03:37:03;98894.41;;;-9.75;67.69
12973;BME280;6551;51.056;9.466;2022-12-18T03:39:29;98886.22;;;-9.85;66.85
12973;BME280;6551;51.056;9.466;2022-12-18T03:42:01;98891.19;;;-9.80;67.13
12973;BME280;6551;51.056;9.466;2022-12-18T03:47:26;98884.69;;;-9.89;67.10
12973;BME280;6551;51.056;9.466;2022-12-18T03:52:37;98873.53;;;-9.89;67.08
12973;BME280;6551;51.056;9.466;2022-12-18T03:55:05;98871.66;;;-10.06;66.81
12973;BME280;6551;51.056;9.466;2022-12-18T03:57:32;98877.81;;;-10.30;66.92
12973;BME280;6551;51.056;9.466;2022-12-18T04:00:10;98885.97;;;-10.19;66.88
12973;BME280;6551;51.056;9.466;2022-12-18T04:02:42;98890.16;;;-10.17;66.69
12973;BME280;6551;51.056;9.466;2022-12-18T04:05:09;98890.97;;;-10.38;66.73
12973;BME280;6551;51.056;9.466;2022-12-18T04:07:36;98883.22;;;-10.36;67.30
12973;BME280;6551;51.056;9.466;2022-12-18T04:10:07;98887.81;;;-10.23;68.41
12973;BME280;6551;51.056;9.466;2022-12-18T04:12:33;98889.50;;;-10.22;67.91
12973;BME280;6551;51.056;9.466;2022-12-18T04:14:59;98887.47;;;-10.14;67.39
12973;BME280;6551;51.056;9.466;2022-12-18T04:17:25;98882.31;;;-10.14;66.76
12973;BME280;6551;51.056;9.466;2022-12-18T04:19:51;98889.41;;;-10.20;66.30
12973;BME280;6551;51.056;9.466;2022-12-18T04:22:17;98884.38;;;-10.23;66.31
12973;BME280;6551;51.056;9.466;2022-12-18T04:24:43;98890.31;;;-10.21;67.37
12973;BME280;6551;51.056;9.466;2022-12-18T04:27:09;98893.59;;;-10.18;66.45
12973;BME280;6551;51.056;9.466;2022-12-18T04:29:35;98884.91;;;-10.15;66.66
12973;BME280;6551;51.056;9.466;2022-12-18T04:32:01;98887.63;;;-10.18;66.82
12973;BME280;6551;51.056;9.466;2022-12-18T04:34:27;98887.63;;;-10.18;66.69
12973;BME280;6551;51.056;9.466;2022-12-18T04:36:52;98881.09;;;-10.27;66.13
12973;BME280;6551;51.056;9.466;2022-12-18T04:39:18;98888.53;;;-10.19;66.65
12973;BME280;6551;51.056;9.466;2022-12-18T04:41:44;98891.16;;;-10.21;67.03
12973;BME280;6551;51.056;9.466;2022-12-18T04:44:10;98897.38;;;-10.26;66.77
12973;BME280;6551;51.056;9.466;2022-12-18T04:46:36;98895.66;;;-10.26;66.88
12973;BME280;6551;51.056;9.466;2022-12-18T04:49:01;98896.25;;;-10.19;67.53
12973;BME280;6551;51.056;9.466;2022-12-18T04:51:27;98889.47;;;-10.01;68.35
12973;BME280;6551;51.056;9.466;2022-12-18T04:53:53;98891.97;;;-9.78;69.36
12973;BME280;6551;51.056;9.466;2022-12-18T04:56:20;98884.56;;;-9.66;69.68
12973;BME280;6551;51.056;9.466;2022-12-18T04:58:46;98895.56;;;-9.62;68.95
12973;BME280;6551;51.056;9.466;2022-12-18T05:01:16;98893.50;;;-9.74;67.42
12973;BME280;6551;51.056;9.466;2022-12-18T05:03:42;98893.50;;;-10.15;67.47
12973;BME280;6551;51.056;9.466;2022-12-18T05:06:08;98894.06;;;-10.08;67.32
12973;BME280;6551;51.056;9.466;2022-12-18T05:08:34;98887.47;;;-10.14;67.66
12973;BME280;6551;51.056;9.466;2022-12-18T05:11:04;98888.00;;;-10.07;68.38
12973;BME280;6551;51.056;9.466;2022-12-18T05:13:30;98898.47;;;-9.90;70.06
12973;BME280;6551;51.056;9.466;2022-12-18T05:15:56;98906.38;;;-9.74;70.89
12973;BME280;6551;51.056;9.466;2022-12-18T05:18:25;98913.41;;;-9.58;71.31
12973;BME280;6551;51.056;9.466;2022-12-18T05:20:53;98916.59;;;-9.51;70.89
12973;BME280;6551;51.056;9.466;2022-12-18T05:23:20;98919.50;;;-9.38;71.34
12973;BME280;6551;51.056;9.466;2022-12-18T05:28:19;98922.13;;;-9.20;70.68
12973;BME280;6551;51.056;9.466;2022-12-18T05:30:55;98929.97;;;-9.03;70.42
12973;BME280;6551;51.056;9.466;2022-12-18T05:33:22;98928.00;;;-9.16;69.84
12973;BME280;6551;51.056;9.466;2022-12-18T05:36:00;98941.66;;;-9.14;68.67
12973;BME280;6551;51.056;9.466;2022-12-18T05:38:28;98936.13;;;-9.25;68.05
12973;BME280;6551;51.056;9.466;2022-12-18T05:40:55;98933.41;;;-9.22;68.68
12973;BME280;6551;51.056;9.466;2022-12-18T05:43:24;98922.88;;;-9.18;69.22
12973;BME280;6551;51.056;9.466;2022-12-18T05:45:50;98919.59;;;-9.21;69.53
12973;BME280;6551;51.056;9.466;2022-12-18T05:48:17;98912.69;;;-9.21;68.99
12973;BME280;6551;51.056;9.466;2022-12-18T05:50:44;98910.75;;;-9.16;69.67
12973;BME280;6551;51.056;9.466;2022-12-18T05:53:16;98916.25;;;-9.23;69.48
12973;BME280;6551;51.056;9.466;2022-12-18T05:55:43;98909.66;;;-9.10;69.87
12973;BME280;6551;51.056;9.466;2022-12-18T05:58:11;98904.09;;;-9.01;70.27
12973;BME280;6551;51.056;9.466;2022-12-18T06:00:40;98905.69;;;-8.99;70.07
12973;BME280;6551;51.056;9.466;2022-12-18T06:03:10;98898.41;;;-8.89;69.79
12973;BME280;6551;51.056;9.466;2022-12-18T06:05:39;98903.56;;;-8.89;69.97
12973;BME280;6551;51.056;9.466;2022-12-18T06:08:05;98904.53;;;-8.92;69.21
12973;BME280;6551;51.056;9.466;2022-12-18T06:10:31;98907.31;;;-8.96;68.84
12973;BME280;6551;51.056;9.466;2022-12-18T06:12:56;98903.88;;;-9.15;68.06
12973;BME280;6551;51.056;9.466;2022-12-18T06:15:22;98894.47;;;-9.16;68.61
12973;BME280;6551;51.056;9.466;2022-12-18T06:17:48;98900.31;;;-9.13;69.20
12973;BME280;6551;51.056;9.466;2022-12-18T06:20:13;98894.25;;;-9.12;69.53
12973;BME280;6551;51.056;9.466;2022-12-18T06:22:40;98896.38;;;-9.21;68.93
12973;BME280;6551;51.056;9.466;2022-12-18T06:25:06;98889.44;;;-9.19;69.18
12973;BME280;6551;51.056;9.466;2022-12-18T06:27:32;98899.69;;;-9.18;69.53
12973;BME280;6551;51.056;9.466;2022-12-18T06:29:59;98909.03;;;-9.15;69.60
12973;BME280;6551;51.056;9.466;2022-12-18T06:32:26;98906.19;;;-9.09;69.82
12973;BME280;6551;51.056;9.466;2022-12-18T06:34:52;98908.75;;;-9.09;69.99
12973;BME280;6551;51.056;9.466;2022-12-18T06:37:18;98907.44;;;-8.99;70.06
12973;BME280;6551;51.056;9.466;2022-12-18T06:39:44;98916.72;;;-8.95;70.78
12973;BME280;6551;51.056;9.466;2022-12-18T06:42:10;98918.25;;;-8.91;70.48
12973;BME280;6551;51.056;9.466;2022-12-18T06:44:35;98910.72;;;-8.96;70.31
12973;BME280;6551;51.056;9.466;2022-12-18T06:47:02;98921.75;;;-8.92;70.39
12973;BME280;6551;51.056;9.466;2022-12-18T06:49:27;98929.22;;;-8.86;70.72
12973;BME280;6551;51.056;9.466;2022-12-18T06:51:53;98932.34;;;-8.79;70.46
12973;BME280;6551;51.056;9.466;2022-12-18T06:54:20;98935.78;;;-8.79;70.15
12973;BME280;6551;51.056;9.466;2022-12-18T06:56:46;98943.03;;;-8.87;68.84
12973;BME280;6551;51.056;9.466;2022-12-18T06:59:13;98931.72;;;-9.03;68.08
12973;BME280;6551;51.056;9.466;2022-12-18T07:01:40;98932.84;;;-9.10;68.50
12973;BME280;6551;51.056;9.466;2022-12-18T07:04:05;98937.59;;;-9.20;67.68
12973;BME280;6551;51.056;9.466;2022-12-18T07:06:31;98944.34;;;-9.17;68.81
12973;BME280;6551;51.056;9.466;2022-12-18T07:08:57;98951.19;;;-9.16;68.62
12973;BME280;6551;51.056;9.466;2022-12-18T07:11:23;98951.75;;;-9.10;69.61
12973;BME280;6551;51.056;9.466;2022-12-18T07:13:49;98959.16;;;-9.02;70.72
12973;BME280;6551;51.056;9.466;2022-12-18T07:16:20;98959.22;;;-8.83;71.75
12973;BME280;6551;51.056;9.466;2022-12-18T07:18:46;98959.84;;;-8.78;71.93
12973;BME280;6551;51.056;9.466;2022-12-18T07:21:18;98959.44;;;-8.69;72.75
12973;BME280;6551;51.056;9.466;2022-12-18T07:23:44;98963.28;;;-8.59;73.00
12973;BME280;6551;51.056;9.466;2022-12-18T07:26:15;98957.91;;;-8.55;72.50
12973;BME280;6551;51.056;9.466;2022-12-18T07:28:41;98965.31;;;-8.47;72.14
12973;BME280;6551;51.056;9.466;2022-12-18T07:31:13;98960.44;;;-8.35;73.65
12973;BME280;6551;51.056;9.466;2022-12-18T07:33:40;98954.09;;;-8.27;73.32
12973;BME280;6551;51.056;9.466;2022-12-18T07:36:07;98953.47;;;-8.15;73.35
12973;BME280;6551;51.056;9.466;2022-12-18T07:38:35;98957.66;;;-8.13;72.00
12973;BME280;6551;51.056;9.466;2022-12-18T07:41:07;98958.22;;;-8.06;70.94
12973;BME280;6551;51.056;9.466;2022-12-18T07:43:34;98958.84;;;-8.01;70.70
12973;BME280;6551;51.056;9.466;2022-12-18T07:46:01;98966.03;;;-7.89;70.67
12973;BME280;6551;51.056;9.466;2022-12-18T07:48:28;98953.84;;;-7.87;70.13
12973;BME280;6551;51.056;9.466;2022-12-18T07:51:02;98954.19;;;-7.76;69.39
12973;BME280;6551;51.056;9.466;2022-12-18T07:53:30;98955.91;;;-7.77;68.74
12973;BME280;6551;51.056;9.466;2022-12-18T07:56:01;98957.31;;;-7.69;68.24
12973;BME280;6551;51.056;9.466;2022-12-18T07:58:28;98945.66;;;-7.78;67.35
12973;BME280;6551;51.056;9.466;2022-12-18T08:01:01;98953.13;;;-7.72;68.09
12973;BME280;6551;51.056;9.466;2022-12-18T08:03:27;98956.25;;;-7.48;68.65
12973;BME280;6551;51.056;9.466;2022-12-18T08:06:08;98952.59;;;-7.10;68.88
12973;BME280;6551;51.056;9.466;2022-12-18T08:08:35;98951.41;;;-6.87;67.07
12973;BME280;6551;51.056;9.466;2022-12-18T08:11:01;98944.09;;;-6.79;65.52
12973;BME280;6551;51.056;9.466;2022-12-18T08:13:27;98955.59;;;-6.52;66.09
12973;BME280;6551;51.056;9.466;2022-12-18T08:16:07;98953.03;;;-6.05;66.65
12973;BME280;6551;51.056;9.466;2022-12-18T08:18:34;98949.75;;;-5.04;67.65
12973;BME280;6551;51.056;9.466;2022-12-18T08:21:15;98936.22;;;-3.57;66.80
12973;BME280;6551;51.056;9.466;2022-12-18T08:23:41;98937.72;;;-2.14;64.19
12973;BME280;6551;51.056;9.466;2022-12-18T08:26:08;98932.53;;;-0.97;59.66
12973;BME280;6551;51.056;9.466;2022-12-18T08:28:34;98930.31;;;0.10;56.31
12973;BME280;6551;51.056;9.466;2022-12-18T08:31:00;98925.00;;;0.95;52.88
12973;BME280;6551;51.056;9.466;2022-12-18T08:33:26;98915.06;;;1.40;50.29
12973;BME280;6551;51.056;9.466;2022-12-18T08:35:52;98924.69;;;2.00;48.44
12973;BME280;6551;51.056;9.466;2022-12-18T08:38:18;98919.69;;;1.88;46.47
12973;BME280;6551;51.056;9.466;2022-12-18T08:40:44;98906.50;;;1.78;46.10
12973;BME280;6551;51.056;9.466;2022-12-18T08:43:10;98900.44;;;2.36;45.94
12973;BME280;6551;51.056;9.466;2022-12-18T08:45:56;98890.22;;;2.72;45.93
12973;BME280;6551;51.056;9.466;2022-12-18T08:48:22;98887.50;;;3.29;45.07
12973;BME280;6551;51.056;9.466;2022-12-18T08:50:58;98892.50;;;3.96;43.92
12973;BME280;6551;51.056;9.466;2022-12-18T08:53:25;98896.13;;;3.59;44.19
12973;BME280;6551;51.056;9.466;2022-12-18T08:55:52;98893.16;;;4.43;43.77
12973;BME280;6551;51.056;9.466;2022-12-18T08:58:18;98886.63;;;4.65;42.49
12973;BME280;6551;51.056;9.466;2022-12-18T09:00:44;98879.09;;;5.13;42.16
12973;BME280;6551;51.056;9.466;2022-12-18T09:03:14;98879.28;;;6.05;41.88
12973;BME280;6551;51.056;9.466;2022-12-18T09:05:40;98880.22;;;6.78;41.48
12973;BME280;6551;51.056;9.466;2022-12-18T09:08:07;98866.97;;;7.35;40.64
12973;BME280;6551;51.056;9.466;2022-12-18T09:10:33;98867.75;;;7.98;39.94
12973;BME280;6551;51.056;9.466;2022-12-18T09:12:58;98864.38;;;8.12;38.65
12973;BME280;6551;51.056;9.466;2022-12-18T09:15:24;98874.69;;;6.23;39.81
12973;BME280;6551;51.056;9.466;2022-12-18T09:17:50;98867.28;;;6.35;40.64
12973;BME280;6551;51.056;9.466;2022-12-18T09:20:18;98863.00;;;6.42;40.70
12973;BME280;6551;51.056;9.466;2022-12-18T09:22:44;98866.44;;;5.84;41.78
12973;BME280;6551;51.056;9.466;2022-12-18T09:25:10;98873.91;;;6.39;41.82
12973;BME280;6551;51.056;9.466;2022-12-18T09:27:36;98855.94;;;6.83;40.92
12973;BME280;6551;51.056;9.466;2022-12-18T09:30:02;98856.69;;;6.27;41.36
12973;BME280;6551;51.056;9.466;2022-12-18T09:32:28;98853.84;;;5.78;42.56
12973;BME280;6551;51.056;9.466;2022-12-18T09:34:54;98852.16;;;6.03;42.22
12973;BME280;6551;51.056;9.466;2022-12-18T09:37:19;98835.97;;;5.98;42.38
12973;BME280;6551;51.056;9.466;2022-12-18T09:39:45;98830.34;;;5.59;43.38
12973;BME280;6551;51.056;9.466;2022-12-18T09:42:23;98831.72;;;5.12;45.32
12973;BME280;6551;51.056;9.466;2022-12-18T09:44:53;98843.31;;;4.93;46.17
12973;BME280;6551;51.056;9.466;2022-12-18T09:47:30;98851.06;;;4.51;47.65
12973;BME280;6551;51.056;9.466;2022-12-18T09:50:05;98863.81;;;4.11;47.20
12973;BME280;6551;51.056;9.466;2022-12-18T09:52:41;98873.59;;;3.37;48.09
12973;BME280;6551;51.056;9.466;2022-12-18T09:55:37;98880.75;;;3.08;50.46
12973;BME280;6551;51.056;9.466;2022-12-18T09:58:34;98877.41;;;3.15;50.59
12973;BME280;6551;51.056;9.466;2022-12-18T10:01:01;98868.44;;;2.99;51.53
12973;BME280;6551;51.056;9.466;2022-12-18T10:03:27;98868.22;;;2.54;52.02
12973;BME280;6551;51.056;9.466;2022-12-18T10:08:35;98855.47;;;2.87;52.66
12973;BME280;6551;51.056;9.466;2022-12-18T10:14:04;98855.56;;;3.51;53.21
12973;BME280;6551;51.056;9.466;2022-12-18T10:19:39;98839.38;;;4.19;52.45
12973;BME280;6551;51.056;9.466;2022-12-18T10:25:12;98833.13;;;4.55;51.62
12973;BME280;6551;51.056;9.466;2022-12-18T10:27:40;98836.22;;;4.94;51.76
12973;BME280;6551;51.056;9.466;2022-12-18T10:30:17;98850.19;;;5.38;50.50
12973;BME280;6551;51.056;9.466;2022-12-18T10:32:43;98847.31;;;5.57;49.49
12973;BME280;6551;51.056;9.466;2022-12-18T10:35:19;98851.78;;;5.56;48.74
12973;BME280;6551;51.056;9.466;2022-12-18T10:41:05;98849.28;;;5.21;49.36
12973;BME280;6551;51.056;9.466;2022-12-18T10:43:39;98843.66;;;5.16;49.04
12973;BME280;6551;51.056;9.466;2022-12-18T10:48:55;98842.00;;;4.97;49.05
12973;BME280;6551;51.056;9.466;2022-12-18T10:51:30;98835.03;;;5.14;49.48
12973;BME280;6551;51.056;9.466;2022-12-18T10:54:17;98831.09;;;5.44;49.40
12973;BME280;6551;51.056;9.466;2022-12-18T10:56:45;98823.81;;;5.79;49.71
12973;BME280;6551;51.056;9.466;2022-12-18T10:59:15;98822.97;;;5.79;48.60
12973;BME280;6551;51.056;9.466;2022-12-18T11:01:52;98821.06;;;5.89;48.41
12973;BME280;6551;51.056;9.466;2022-12-18T11:04:30;98812.34;;;5.63;48.39
12973;BME280;6551;51.056;9.466;2022-12-18T11:07:03;98812.09;;;5.40;49.54
12973;BME280;6551;51.056;9.466;2022-12-18T11:09:34;98800.72;;;5.14;50.73
12973;BME280;6551;51.056;9.466;2022-12-18T11:12:23;98799.44;;;4.92;50.79
12973;BME280;6551;51.056;9.466;2022-12-18T11:14:52;98792.50;;;4.91;51.19
12973;BME280;6551;51.056;9.466;2022-12-18T11:17:29;98807.09;;;5.03;50.79
12973;BME280;6551;51.056;9.466;2022-12-18T11:20:01;98801.59;;;5.22;51.56
12973;BME280;6551;51.056;9.466;2022-12-18T11:22:33;98801.34;;;5.42;50.98
12973;BME280;6551;51.056;9.466;2022-12-18T11:27:28;98785.78;;;5.72;50.22
12973;BME280;6551;51.056;9.466;2022-12-18T11:33:00;98777.28;;;5.95;48.72
12973;BME280;6551;51.056;9.466;2022-12-18T11:35:55;98765.34;;;5.82;49.03
12973;BME280;6551;51.056;9.466;2022-12-18T11:38:35;98756.81;;;5.47;49.54
12973;BME280;6551;51.056;9.466;2022-12-18T11:44:15;98775.09;;;4.81;51.79
12973;BME280;6551;51.056;9.466;2022-12-18T11:46:49;98764.97;;;4.68;52.13
12973;BME280;6551;51.056;9.466;2022-12-18T11:49:28;98769.06;;;4.62;52.33
12973;BME280;6551;51.056;9.466;2022-12-18T11:52:39;98760.38;;;4.70;53.16
12973;BME280;6551;51.056;9.466;2022-12-18T11:58:59;98748.44;;;4.58;53.13
12973;BME280;6551;51.056;9.466;2022-12-18T12:04:31;98741.78;;;4.54;53.86
12973;BME280;6551;51.056;9.466;2022-12-18T12:21:40;98706.38;;;4.82;52.89
12973;BME280;6551;51.056;9.466;2022-12-18T12:24:34;98711.09;;;4.70;54.26
12973;BME280;6551;51.056;9.466;2022-12-18T12:30:18;98703.47;;;4.67;54.55
12973;BME280;6551;51.056;9.466;2022-12-18T12:36:27;98699.28;;;4.31;55.66
12973;BME280;6551;51.056;9.466;2022-12-18T12:39:01;98704.97;;;4.19;55.55
12973;BME280;6551;51.056;9.466;2022-12-18T12:41:33;98695.84;;;4.13;56.57
12973;BME280;6551;51.056;9.466;2022-12-18T12:44:29;98703.91;;;4.11;56.34
12973;BME280;6551;51.056;9.466;2022-12-18T12:47:03;98692.75;;;4.00;56.51
12973;BME280;6551;51.056;9.466;2022-12-18T12:49:33;98688.19;;;3.84;56.19
12973;BME280;6551;51.056;9.466;2022-12-18T12:52:04;98689.72;;;3.69;56.45
12973;BME280;6551;51.056;9.466;2022-12-18T12:54:32;98684.56;;;3.50;56.31
12973;BME280;6551;51.056;9.466;2022-12-18T12:57:22;98683.88;;;3.30;57.28
12973;BME280;6551;51.056;9.466;2022-12-18T13:00:16;98697.88;;;3.04;57.68
12973;BME280;6551;51.056;9.466;2022-12-18T13:05:40;98709.53;;;2.55;58.93
12973;BME280;6551;51.056;9.466;2022-12-18T13:08:22;98708.88;;;2.43;59.88
12973;BME280;6551;51.056;9.466;2022-12-18T13:10:48;98709.16;;;2.40;59.83
12973;BME280;6551;51.056;9.466;2022-12-18T13:13:15;98716.47;;;2.36;60.06
12973;BME280;6551;51.056;9.466;2022-12-18T13:16:03;98708.59;;;2.36;61.19
12973;BME280;6551;51.056;9.466;2022-12-18T13:18:30;98705.31;;;2.15;61.80
12973;BME280;6551;51.056;9.466;2022-12-18T13:28:52;98708.66;;;1.60;64.92
12973;BME280;6551;51.056;9.466;2022-12-18T13:34:22;98710.19;;;1.72;63.31
12973;BME280;6551;51.056;9.466;2022-12-18T13:36:50;98715.03;;;1.76;63.62
12973;BME280;6551;51.056;9.466;2022-12-18T13:41:51;98726.63;;;1.93;62.29
12973;BME280;6551;51.056;9.466;2022-12-18T13:44:39;98728.84;;;1.88;62.26
12973;BME280;6551;51.056;9.466;2022-12-18T13:47:31;98715.31;;;1.83;61.62
12973;BME280;6551;51.056;9.466;2022-12-18T13:49:58;98723.16;;;1.73;61.97
12973;BME280;6551;51.056;9.466;2022-12-18T13:52:33;98704.94;;;1.62;62.33
12973;BME280;6551;51.056;9.466;2022-12-18T13:55:04;98707.53;;;1.53;63.10
12973;BME280;6551;51.056;9.466;2022-12-18T13:57:34;98707.38;;;1.45;62.88
12973;BME280;6551;51.056;9.466;2022-12-18T14:00:26;98704.97;;;1.23;63.09
12973;BME280;6551;51.056;9.466;2022-12-18T14:02:55;98708.59;;;1.22;63.20
12973;BME280;6551;51.056;9.466;2022-12-18T14:05:32;98706.91;;;1.11;63.53
12973;BME280;6551;51.056;9.466;2022-12-18T14:08:06;98704.50;;;0.98;63.77
12973;BME280;6551;51.056;9.466;2022-12-18T14:10:35;98693.97;;;0.79;64.36
12973;BME280;6551;51.056;9.466;2022-12-18T14:13:10;98704.69;;;0.76;65.21
12973;BME280;6551;51.056;9.466;2022-12-18T14:15:42;98707.59;;;0.73;65.29
12973;BME280;6551;51.056;9.466;2022-12-18T14:18:57;98709.09;;;0.66;65.18
12973;BME280;6551;51.056;9.466;2022-12-18T14:21:29;98700.78;;;0.61;65.48
12973;BME280;6551;51.056;9.466;2022-12-18T14:24:18;98709.91;;;0.67;66.43
12973;BME280;6551;51.056;9.466;2022-12-18T14:26:45;98713.25;;;0.48;66.17
12973;BME280;6551;51.056;9.466;2022-12-18T14:29:28;98710.34;;;0.41;67.33
12973;BME280;6551;51.056;9.466;2022-12-18T14:32:13;98724.78;;;0.36;67.15
12973;BME280;6551;51.056;9.466;2022-12-18T14:34:41;98722.47;;;0.22;68.46
12973;BME280;6551;51.056;9.466;2022-12-18T14:37:11;98711.88;;;0.23;68.22
12973;BME280;6551;51.056;9.466;2022-12-18T14:39:37;98709.91;;;0.16;68.31
12973;BME280;6551;51.056;9.466;2022-12-18T14:42:03;98718.69;;;0.15;68.48
12973;BME280;6551;51.056;9.466;2022-12-18T14:44:29;98716.81;;;0.17;68.79
12973;BME280;6551;51.056;9.466;2022-12-18T14:46:56;98713.41;;;0.26;68.50
12973;BME280;6551;51.056;9.466;2022-12-18T14:49:42;98715.41;;;0.33;68.89
12973;BME280;6551;51.056;9.466;2022-12-18T14:52:27;98722.28;;;0.34;68.19
12973;BME280;6551;51.056;9.466;2022-12-18T14:54:55;98722.53;;;0.31;68.67
12973;BME280;6551;51.056;9.466;2022-12-18T14:57:25;98718.31;;;0.40;68.00
12973;BME280;6551;51.056;9.466;2022-12-18T15:00:06;98719.41;;;0.37;68.14
12973;BME280;6551;51.056;9.466;2022-12-18T15:02:34;98724.78;;;0.36;68.26
12973;BME280;6551;51.056;9.466;2022-12-18T15:07:53;98724.38;;;0.20;67.88
12973;BME280;6551;51.056;9.466;2022-12-18T15:10:25;98718.00;;;0.13;67.69
12973;BME280;6551;51.056;9.466;2022-12-18T15:20:47;98717.91;;;-0.49;67.70
12973;BME280;6551;51.056;9.466;2022-12-18T15:23:27;98714.66;;;-0.74;68.31
12973;BME280;6551;51.056;9.466;2022-12-18T15:26:08;98714.22;;;-0.90;68.94
12973;BME280;6551;51.056;9.466;2022-12-18T15:33:43;98711.25;;;-1.30;71.52
12973;BME280;6551;51.056;9.466;2022-12-18T15:36:16;98706.41;;;-1.45;71.74
12973;BME280;6551;51.056;9.466;2022-12-18T15:38:50;98700.94;;;-1.42;72.85
12973;BME280;6551;51.056;9.466;2022-12-18T15:41:21;98698.66;;;-1.36;73.86